createdAt,value
2017-09-23T00:00:37.450Z,0
2017-09-23T00:01:17.993Z,0
2017-09-23T00:01:58.529Z,0
2017-09-23T00:02:39.060Z,0
2017-09-23T00:03:19.589Z,0
2017-09-23T00:04:00.121Z,0
2017-09-23T00:04:40.652Z,0
2017-09-23T00:05:21.197Z,0
2017-09-23T00:06:01.733Z,0
2017-09-23T00:06:42.265Z,0
2017-09-23T00:07:22.801Z,0
2017-09-23T00:08:03.334Z,0
2017-09-23T00:08:43.872Z,0
2017-09-23T00:09:24.390Z,0
2017-09-23T00:10:04.937Z,0
2017-09-23T00:10:45.473Z,0
2017-09-23T00:11:25.996Z,0
2017-09-23T00:12:06.532Z,0
2017-09-23T00:12:47.078Z,0
2017-09-23T00:13:27.618Z,0
2017-09-23T00:14:08.161Z,0
2017-09-23T00:14:48.689Z,0
2017-09-23T00:15:29.222Z,0
2017-09-23T00:16:09.755Z,0
2017-09-23T00:16:50.293Z,0
2017-09-23T00:17:30.829Z,0
2017-09-23T00:18:11.359Z,0
2017-09-23T00:18:51.900Z,0
2017-09-23T00:19:32.438Z,0
2017-09-23T00:20:12.993Z,0
2017-09-23T00:20:53.502Z,0
2017-09-23T00:21:34.041Z,0
2017-09-23T00:22:14.580Z,0
2017-09-23T00:22:55.111Z,0
2017-09-23T00:23:35.646Z,0
2017-09-23T00:24:16.188Z,0
2017-09-23T00:24:56.727Z,0
2017-09-23T00:25:37.263Z,0
2017-09-23T00:26:17.799Z,0
2017-09-23T00:26:58.338Z,0
2017-09-23T00:27:38.873Z,0
2017-09-23T00:28:19.413Z,0
2017-09-23T00:28:59.951Z,0
2017-09-23T00:29:40.492Z,0
2017-09-23T00:30:21.032Z,0
2017-09-23T00:31:01.570Z,0
2017-09-23T00:31:42.103Z,0
2017-09-23T00:32:22.639Z,0
2017-09-23T00:33:03.173Z,0
2017-09-23T00:33:43.763Z,0
2017-09-23T00:34:24.295Z,0
2017-09-23T00:35:04.843Z,0
2017-09-23T00:35:45.381Z,0
2017-09-23T00:36:25.915Z,0
2017-09-23T00:37:06.461Z,0
2017-09-23T00:37:46.991Z,0
2017-09-23T00:38:27.511Z,0
2017-09-23T00:39:08.052Z,0
2017-09-23T00:39:48.575Z,0
2017-09-23T00:40:29.110Z,0
2017-09-23T00:41:09.650Z,0
2017-09-23T00:41:50.172Z,0
2017-09-23T00:42:30.709Z,0
2017-09-23T00:43:11.255Z,0
2017-09-23T00:43:51.793Z,0
2017-09-23T00:44:32.330Z,0
2017-09-23T00:45:12.867Z,0
2017-09-23T00:45:53.403Z,0
2017-09-23T00:46:33.940Z,0
2017-09-23T00:47:14.496Z,0
2017-09-23T00:47:55.014Z,0
2017-09-23T00:48:35.559Z,0
2017-09-23T00:49:16.089Z,0
2017-09-23T00:49:56.623Z,0
2017-09-23T00:50:37.159Z,0
2017-09-23T00:51:17.705Z,0
2017-09-23T00:51:58.239Z,0
2017-09-23T00:52:38.784Z,0
2017-09-23T00:53:19.376Z,0
2017-09-23T00:53:59.921Z,0
2017-09-23T00:54:40.457Z,0
2017-09-23T00:55:20.986Z,0
2017-09-23T00:56:01.523Z,0
2017-09-23T00:56:42.068Z,0
2017-09-23T00:57:22.589Z,0
2017-09-23T00:58:03.129Z,0
2017-09-23T00:58:43.659Z,0
2017-09-23T00:59:24.182Z,0
2017-09-23T01:00:04.712Z,0
2017-09-23T01:00:45.255Z,0
2017-09-23T01:01:25.786Z,0
2017-09-23T01:02:06.331Z,0
2017-09-23T01:02:46.874Z,0
2017-09-23T01:03:27.411Z,0
2017-09-23T01:04:07.943Z,0
2017-09-23T01:04:48.477Z,0
2017-09-23T01:05:29.020Z,0
2017-09-23T01:06:09.576Z,0
2017-09-23T01:06:50.090Z,0
2017-09-23T01:07:30.636Z,0
2017-09-23T01:08:11.164Z,0
2017-09-23T01:08:51.703Z,0
2017-09-23T01:09:32.248Z,0
2017-09-23T01:10:12.781Z,0
2017-09-23T01:10:53.326Z,0
2017-09-23T01:11:33.866Z,0
2017-09-23T01:12:14.400Z,0
2017-09-23T01:12:54.936Z,0
2017-09-23T01:13:35.472Z,0
2017-09-23T01:14:16.008Z,0
2017-09-23T01:14:56.540Z,0
2017-09-23T01:15:37.079Z,0
2017-09-23T01:16:17.616Z,0
2017-09-23T01:16:58.157Z,0
2017-09-23T01:17:38.695Z,0
2017-09-23T01:18:19.233Z,0
2017-09-23T01:18:59.766Z,0
2017-09-23T01:19:40.305Z,0
2017-09-23T01:20:20.844Z,0
2017-09-23T01:21:01.376Z,0
2017-09-23T01:21:41.917Z,0
2017-09-23T01:22:22.461Z,0
2017-09-23T01:23:02.999Z,0
2017-09-23T01:23:43.534Z,0
2017-09-23T01:24:24.070Z,0
2017-09-23T01:25:04.621Z,0
2017-09-23T01:25:45.160Z,0
2017-09-23T01:26:25.699Z,0
2017-09-23T01:27:06.312Z,0
2017-09-23T01:27:46.855Z,0
2017-09-23T01:28:27.409Z,0
2017-09-23T01:29:07.923Z,0
2017-09-23T01:29:48.452Z,0
2017-09-23T01:30:29.000Z,0
2017-09-23T01:31:09.538Z,0
2017-09-23T01:31:50.062Z,0
2017-09-23T01:32:30.597Z,0
2017-09-23T01:33:11.140Z,0
2017-09-23T01:33:51.680Z,0
2017-09-23T01:34:32.219Z,0
2017-09-23T01:35:12.752Z,0
2017-09-23T01:35:53.287Z,0
2017-09-23T01:36:33.827Z,0
2017-09-23T01:37:14.364Z,0
2017-09-23T01:37:54.897Z,0
2017-09-23T01:38:35.423Z,0
2017-09-23T01:39:15.960Z,0
2017-09-23T01:39:56.500Z,0
2017-09-23T01:40:37.037Z,0
2017-09-23T01:41:17.575Z,0
2017-09-23T01:41:58.117Z,0
2017-09-23T01:42:38.658Z,0
2017-09-23T01:43:19.190Z,0
2017-09-23T01:43:59.724Z,0
2017-09-23T01:44:40.262Z,0
2017-09-23T01:45:20.805Z,0
2017-09-23T01:46:01.351Z,0
2017-09-23T01:46:41.872Z,0
2017-09-23T01:47:22.407Z,0
2017-09-23T01:48:02.943Z,0
2017-09-23T01:48:43.472Z,0
2017-09-23T01:49:24.009Z,0
2017-09-23T01:50:04.545Z,0
2017-09-23T01:50:45.078Z,0
2017-09-23T01:51:25.623Z,0
2017-09-23T01:52:06.158Z,0
2017-09-23T01:52:46.713Z,0
2017-09-23T01:53:27.244Z,0
2017-09-23T01:54:07.779Z,0
2017-09-23T01:54:48.313Z,0
2017-09-23T01:55:28.870Z,0
2017-09-23T01:56:09.415Z,0
2017-09-23T01:56:49.951Z,0
2017-09-23T01:57:30.493Z,0
2017-09-23T01:58:11.033Z,0
2017-09-23T01:58:51.569Z,0
2017-09-23T01:59:32.105Z,0
2017-09-23T02:00:12.643Z,0
2017-09-23T02:00:53.183Z,0
2017-09-23T02:01:33.723Z,0
2017-09-23T02:02:14.262Z,0
2017-09-23T02:02:54.796Z,0
2017-09-23T02:03:35.336Z,0
2017-09-23T02:04:15.873Z,0
2017-09-23T02:04:56.409Z,0
2017-09-23T02:05:36.945Z,0
2017-09-23T02:06:17.479Z,0
2017-09-23T02:06:58.004Z,0
2017-09-23T02:07:38.541Z,0
2017-09-23T02:08:19.081Z,0
2017-09-23T02:08:59.620Z,0
2017-09-23T02:09:40.158Z,0
2017-09-23T02:10:20.699Z,0
2017-09-23T02:11:01.238Z,0
2017-09-23T02:11:41.779Z,0
2017-09-23T02:12:22.316Z,0
2017-09-23T02:13:02.848Z,0
2017-09-23T02:13:43.381Z,0
2017-09-23T02:14:23.916Z,0
2017-09-23T02:15:04.452Z,0
2017-09-23T02:15:44.984Z,0
2017-09-23T02:16:25.516Z,0
2017-09-23T02:17:06.053Z,0
2017-09-23T02:17:46.598Z,0
2017-09-23T02:18:27.139Z,0
2017-09-23T02:19:07.677Z,0
2017-09-23T02:19:48.215Z,0
2017-09-23T02:20:28.756Z,0
2017-09-23T02:21:09.297Z,0
2017-09-23T02:21:49.840Z,0
2017-09-23T02:22:30.377Z,0
2017-09-23T02:23:10.922Z,0
2017-09-23T02:23:51.454Z,0
2017-09-23T02:24:31.992Z,0
2017-09-23T02:25:12.533Z,0
2017-09-23T02:25:53.071Z,0
2017-09-23T02:26:33.599Z,0
2017-09-23T02:27:14.142Z,0
2017-09-23T02:27:54.680Z,0
2017-09-23T02:28:35.218Z,0
2017-09-23T02:29:15.759Z,0
2017-09-23T02:29:56.301Z,0
2017-09-23T02:30:36.839Z,0
2017-09-23T02:31:17.374Z,0
2017-09-23T02:31:57.912Z,0
2017-09-23T02:32:38.447Z,0
2017-09-23T02:33:18.988Z,0
2017-09-23T02:33:59.517Z,0
2017-09-23T02:34:40.063Z,0
2017-09-23T02:35:20.600Z,0
2017-09-23T02:36:01.169Z,0
2017-09-23T02:36:41.666Z,0
2017-09-23T02:37:22.199Z,0
2017-09-23T02:38:02.738Z,0
2017-09-23T02:38:43.281Z,0
2017-09-23T02:39:23.807Z,0
2017-09-23T02:40:04.349Z,0
2017-09-23T02:40:44.888Z,0
2017-09-23T02:41:25.429Z,0
2017-09-23T02:42:05.960Z,0
2017-09-23T02:42:46.497Z,0
2017-09-23T02:43:27.024Z,0
2017-09-23T02:44:07.569Z,0
2017-09-23T02:44:48.090Z,0
2017-09-23T02:45:28.633Z,0
2017-09-23T02:46:09.164Z,0
2017-09-23T02:46:49.708Z,0
2017-09-23T02:47:30.240Z,0
2017-09-23T02:48:10.784Z,0
2017-09-23T02:48:51.322Z,0
2017-09-23T02:49:31.854Z,0
2017-09-23T02:50:12.382Z,0
2017-09-23T02:50:52.922Z,0
2017-09-23T02:51:33.461Z,0
2017-09-23T02:52:14.004Z,0
2017-09-23T02:52:54.532Z,0
2017-09-23T02:53:35.078Z,0
2017-09-23T02:54:15.613Z,0
2017-09-23T02:54:56.147Z,0
2017-09-23T02:55:36.687Z,0
2017-09-23T02:56:17.226Z,0
2017-09-23T02:56:57.766Z,0
2017-09-23T02:57:38.303Z,0
2017-09-23T02:58:18.833Z,0
2017-09-23T02:58:59.375Z,0
2017-09-23T02:59:39.921Z,0
2017-09-23T03:00:20.438Z,0
2017-09-23T03:01:00.978Z,0
2017-09-23T03:01:41.521Z,0
2017-09-23T03:02:22.062Z,0
2017-09-23T03:03:02.598Z,0
2017-09-23T03:03:43.128Z,0
2017-09-23T03:04:23.652Z,0
2017-09-23T03:05:04.189Z,0
2017-09-23T03:05:44.730Z,0
2017-09-23T03:06:25.272Z,0
2017-09-23T03:07:05.794Z,0
2017-09-23T03:07:46.339Z,0
2017-09-23T03:08:26.905Z,0
2017-09-23T03:09:07.411Z,0
2017-09-23T03:09:47.950Z,0
2017-09-23T03:10:28.485Z,0
2017-09-23T03:11:09.027Z,0
2017-09-23T03:11:49.562Z,0
2017-09-23T03:12:30.097Z,0
2017-09-23T03:13:10.640Z,0
2017-09-23T03:13:51.173Z,0
2017-09-23T03:14:31.731Z,0
2017-09-23T03:15:12.238Z,0
2017-09-23T03:15:52.774Z,0
2017-09-23T03:16:33.321Z,0
2017-09-23T03:17:13.864Z,0
2017-09-23T03:17:54.412Z,0
2017-09-23T03:18:34.949Z,0
2017-09-23T03:19:15.470Z,0
2017-09-23T03:19:56.006Z,0
2017-09-23T03:20:36.541Z,0
2017-09-23T03:21:17.086Z,0
2017-09-23T03:21:57.624Z,0
2017-09-23T03:22:38.181Z,0
2017-09-23T03:23:18.702Z,0
2017-09-23T03:23:59.237Z,0
2017-09-23T03:24:39.777Z,0
2017-09-23T03:25:20.314Z,0
2017-09-23T03:26:00.850Z,0
2017-09-23T03:26:41.390Z,0
2017-09-23T03:27:21.928Z,0
2017-09-23T03:28:02.463Z,0
2017-09-23T03:28:43.009Z,0
2017-09-23T03:29:23.558Z,0
2017-09-23T03:30:04.080Z,0
2017-09-23T03:30:44.616Z,0
2017-09-23T03:31:25.156Z,0
2017-09-23T03:32:05.696Z,0
2017-09-23T03:32:46.239Z,0
2017-09-23T03:33:26.784Z,0
2017-09-23T03:34:07.322Z,0
2017-09-23T03:34:47.864Z,0
2017-09-23T03:35:28.402Z,0
2017-09-23T03:36:08.944Z,0
2017-09-23T03:36:49.482Z,0
2017-09-23T03:37:30.006Z,0
2017-09-23T03:38:10.551Z,0
2017-09-23T03:38:51.086Z,0
2017-09-23T03:39:31.630Z,0
2017-09-23T03:40:12.175Z,0
2017-09-23T03:40:52.700Z,0
2017-09-23T03:41:33.237Z,0
2017-09-23T03:42:13.777Z,0
2017-09-23T03:42:54.317Z,0
2017-09-23T03:43:34.858Z,0
2017-09-23T03:44:15.400Z,0
2017-09-23T03:44:55.937Z,0
2017-09-23T03:45:36.474Z,0
2017-09-23T03:46:17.012Z,0
2017-09-23T03:46:57.545Z,0
2017-09-23T03:47:38.081Z,0
2017-09-23T03:48:18.622Z,0
2017-09-23T03:48:59.162Z,0
2017-09-23T03:49:39.711Z,0
2017-09-23T03:50:20.253Z,0
2017-09-23T03:51:00.779Z,0
2017-09-23T03:51:41.316Z,0
2017-09-23T03:52:21.858Z,0
2017-09-23T03:53:02.395Z,0
2017-09-23T03:53:42.963Z,0
2017-09-23T03:54:23.499Z,0
2017-09-23T03:55:04.030Z,0
2017-09-23T03:55:44.567Z,0
2017-09-23T03:56:25.102Z,0
2017-09-23T03:57:05.637Z,0
2017-09-23T03:57:46.173Z,0
2017-09-23T03:58:26.722Z,0
2017-09-23T03:59:07.254Z,0
2017-09-23T03:59:47.793Z,0
2017-09-23T04:00:28.332Z,0
2017-09-23T04:01:08.872Z,0
2017-09-23T04:01:49.410Z,0
2017-09-23T04:02:29.952Z,0
2017-09-23T04:03:10.490Z,0
2017-09-23T04:03:51.028Z,0
2017-09-23T04:04:31.572Z,0
2017-09-23T04:05:12.103Z,0
2017-09-23T04:05:52.640Z,0
2017-09-23T04:06:33.182Z,0
2017-09-23T04:07:13.722Z,0
2017-09-23T04:07:54.257Z,0
2017-09-23T04:08:34.794Z,0
2017-09-23T04:09:15.328Z,0
2017-09-23T04:09:55.863Z,0
2017-09-23T04:10:36.385Z,0
2017-09-23T04:11:16.922Z,0
2017-09-23T04:11:57.461Z,0
2017-09-23T04:12:37.993Z,0
2017-09-23T04:13:18.536Z,0
2017-09-23T04:13:59.069Z,0
2017-09-23T04:14:39.608Z,0
2017-09-23T04:15:20.146Z,0
2017-09-23T04:16:00.687Z,0
2017-09-23T04:16:41.226Z,0
2017-09-23T04:17:21.765Z,0
2017-09-23T04:18:02.296Z,0
2017-09-23T04:18:42.825Z,0
2017-09-23T04:19:23.362Z,0
2017-09-23T04:20:03.899Z,0
2017-09-23T04:20:44.440Z,0
2017-09-23T04:21:24.977Z,0
2017-09-23T04:22:05.516Z,0
2017-09-23T04:22:46.056Z,0
2017-09-23T04:23:26.696Z,0
2017-09-23T04:24:07.224Z,0
2017-09-23T04:24:47.770Z,0
2017-09-23T04:25:28.301Z,0
2017-09-23T04:26:08.831Z,0
2017-09-23T04:26:49.366Z,0
2017-09-23T04:27:29.913Z,0
2017-09-23T04:28:10.455Z,0
2017-09-23T04:28:50.991Z,0
2017-09-23T04:29:31.527Z,0
2017-09-23T04:30:12.064Z,0
2017-09-23T04:30:52.604Z,0
2017-09-23T04:31:33.141Z,0
2017-09-23T04:32:13.674Z,0
2017-09-23T04:32:54.216Z,0
2017-09-23T04:33:34.753Z,0
2017-09-23T04:34:15.294Z,0
2017-09-23T04:34:55.830Z,0
2017-09-23T04:35:36.373Z,0
2017-09-23T04:36:16.909Z,0
2017-09-23T04:36:57.445Z,0
2017-09-23T04:37:37.974Z,0
2017-09-23T04:38:18.519Z,0
2017-09-23T04:38:59.060Z,0
2017-09-23T04:39:39.599Z,0
2017-09-23T04:40:20.130Z,0
2017-09-23T04:41:00.674Z,0
2017-09-23T04:41:41.219Z,0
2017-09-23T04:42:21.766Z,0
2017-09-23T04:43:02.301Z,0
2017-09-23T04:43:42.831Z,0
2017-09-23T04:44:23.364Z,0
2017-09-23T04:45:03.913Z,0
2017-09-23T04:45:44.442Z,0
2017-09-23T04:46:24.978Z,0
2017-09-23T04:47:05.514Z,0
2017-09-23T04:47:46.058Z,0
2017-09-23T04:48:26.584Z,0
2017-09-23T04:49:07.128Z,0
2017-09-23T04:49:47.663Z,0
2017-09-23T04:50:28.200Z,0
2017-09-23T04:51:08.726Z,0
2017-09-23T04:51:49.270Z,0
2017-09-23T04:52:29.805Z,0
2017-09-23T04:53:10.343Z,0
2017-09-23T04:53:50.885Z,0
2017-09-23T04:54:31.423Z,0
2017-09-23T04:55:11.954Z,0
2017-09-23T04:55:52.543Z,0
2017-09-23T04:56:33.023Z,0
2017-09-23T04:57:13.551Z,0
2017-09-23T04:57:54.090Z,0
2017-09-23T04:58:34.626Z,0
2017-09-23T04:59:15.157Z,4
2017-09-23T04:59:55.696Z,4
2017-09-23T05:00:36.233Z,0
2017-09-23T05:01:16.775Z,4
2017-09-23T05:01:57.318Z,4
2017-09-23T05:02:37.857Z,4
2017-09-23T05:03:18.393Z,8
2017-09-23T05:03:58.924Z,4
2017-09-23T05:04:39.463Z,8
2017-09-23T05:05:19.991Z,8
2017-09-23T05:06:00.530Z,8
2017-09-23T05:06:41.073Z,8
2017-09-23T05:07:21.600Z,8
2017-09-23T05:08:02.135Z,12
2017-09-23T05:08:42.677Z,12
2017-09-23T05:09:23.197Z,16
2017-09-23T05:10:03.741Z,16
2017-09-23T05:10:44.274Z,20
2017-09-23T05:11:24.811Z,16
2017-09-23T05:12:05.349Z,20
2017-09-23T05:12:45.881Z,16
2017-09-23T05:13:26.411Z,20
2017-09-23T05:14:06.948Z,20
2017-09-23T05:14:47.486Z,24
2017-09-23T05:15:28.049Z,24
2017-09-23T05:16:08.611Z,24
2017-09-23T05:16:49.148Z,28
2017-09-23T05:17:29.690Z,36
2017-09-23T05:18:10.226Z,32
2017-09-23T05:18:50.769Z,36
2017-09-23T05:19:31.307Z,36
2017-09-23T05:20:11.844Z,36
2017-09-23T05:20:52.388Z,36
2017-09-23T05:21:32.919Z,44
2017-09-23T05:22:13.456Z,44
2017-09-23T05:22:53.994Z,48
2017-09-23T05:23:34.530Z,48
2017-09-23T05:24:15.077Z,48
2017-09-23T05:24:55.628Z,56
2017-09-23T05:25:36.162Z,68
2017-09-23T05:26:16.696Z,72
2017-09-23T05:26:57.232Z,68
2017-09-23T05:27:37.770Z,64
2017-09-23T05:28:18.312Z,64
2017-09-23T05:28:58.852Z,68
2017-09-23T05:29:39.392Z,72
2017-09-23T05:30:19.917Z,84
2017-09-23T05:31:00.450Z,92
2017-09-23T05:31:40.974Z,96
2017-09-23T05:32:21.511Z,96
2017-09-23T05:33:02.054Z,104
2017-09-23T05:33:42.590Z,108
2017-09-23T05:34:23.130Z,116
2017-09-23T05:35:03.687Z,124
2017-09-23T05:35:44.222Z,136
2017-09-23T05:36:24.750Z,152
2017-09-23T05:37:05.287Z,160
2017-09-23T05:37:45.822Z,168
2017-09-23T05:38:26.358Z,176
2017-09-23T05:39:06.895Z,184
2017-09-23T05:39:47.436Z,184
2017-09-23T05:40:27.974Z,188
2017-09-23T05:41:08.514Z,200
2017-09-23T05:41:49.056Z,208
2017-09-23T05:42:29.586Z,212
2017-09-23T05:43:10.124Z,220
2017-09-23T05:43:50.671Z,228
2017-09-23T05:44:31.220Z,236
2017-09-23T05:45:11.765Z,252
2017-09-23T05:45:52.308Z,264
2017-09-23T05:46:32.848Z,284
2017-09-23T05:47:13.383Z,304
2017-09-23T05:47:53.914Z,324
2017-09-23T05:48:34.450Z,340
2017-09-23T05:49:14.974Z,344
2017-09-23T05:49:55.512Z,352
2017-09-23T05:50:36.042Z,352
2017-09-23T05:51:16.595Z,352
2017-09-23T05:51:57.136Z,344
2017-09-23T05:52:37.673Z,348
2017-09-23T05:53:18.224Z,352
2017-09-23T05:53:58.744Z,360
2017-09-23T05:54:39.279Z,360
2017-09-23T05:55:19.811Z,368
2017-09-23T05:56:00.351Z,356
2017-09-23T05:56:40.891Z,344
2017-09-23T05:57:21.430Z,348
2017-09-23T05:58:01.969Z,352
2017-09-23T05:58:42.507Z,372
2017-09-23T05:59:23.040Z,388
2017-09-23T06:00:03.578Z,408
2017-09-23T06:00:44.116Z,416
2017-09-23T06:01:24.656Z,416
2017-09-23T06:02:05.194Z,400
2017-09-23T06:02:45.726Z,392
2017-09-23T06:03:26.279Z,404
2017-09-23T06:04:06.806Z,400
2017-09-23T06:04:47.344Z,376
2017-09-23T06:05:27.881Z,344
2017-09-23T06:06:08.419Z,320
2017-09-23T06:06:48.960Z,304
2017-09-23T06:07:29.500Z,292
2017-09-23T06:08:10.043Z,292
2017-09-23T06:08:50.582Z,304
2017-09-23T06:09:31.115Z,308
2017-09-23T06:10:11.677Z,332
2017-09-23T06:10:52.191Z,360
2017-09-23T06:11:32.720Z,404
2017-09-23T06:12:13.253Z,460
2017-09-23T06:12:53.792Z,480
2017-09-23T06:13:34.333Z,520
2017-09-23T06:14:14.861Z,520
2017-09-23T06:14:55.387Z,520
2017-09-23T06:15:35.957Z,516
2017-09-23T06:16:16.496Z,540
2017-09-23T06:16:57.035Z,592
2017-09-23T06:17:37.571Z,640
2017-09-23T06:18:18.110Z,668
2017-09-23T06:18:58.647Z,676
2017-09-23T06:19:39.181Z,676
2017-09-23T06:20:19.720Z,676
2017-09-23T06:21:00.262Z,684
2017-09-23T06:21:40.788Z,712
2017-09-23T06:22:21.330Z,732
2017-09-23T06:23:01.863Z,752
2017-09-23T06:23:42.395Z,804
2017-09-23T06:24:22.963Z,852
2017-09-23T06:25:03.505Z,888
2017-09-23T06:25:44.037Z,912
2017-09-23T06:26:24.574Z,956
2017-09-23T06:27:05.114Z,972
2017-09-23T06:27:45.654Z,1004
2017-09-23T06:28:26.186Z,1036
2017-09-23T06:29:06.720Z,1060
2017-09-23T06:29:47.260Z,1056
2017-09-23T06:30:27.785Z,1036
2017-09-23T06:31:08.318Z,1020
2017-09-23T06:31:48.858Z,1008
2017-09-23T06:32:29.389Z,1016
2017-09-23T06:33:09.923Z,1032
2017-09-23T06:33:50.464Z,1044
2017-09-23T06:34:30.977Z,1020
2017-09-23T06:35:11.507Z,1024
2017-09-23T06:35:52.046Z,1052
2017-09-23T06:36:32.608Z,1076
2017-09-23T06:37:13.145Z,1164
2017-09-23T06:37:53.712Z,1280
2017-09-23T06:38:34.254Z,1352
2017-09-23T06:39:14.814Z,1420
2017-09-23T06:39:55.348Z,1448
2017-09-23T06:40:35.877Z,1476
2017-09-23T06:41:16.418Z,1496
2017-09-23T06:41:56.952Z,1528
2017-09-23T06:42:37.489Z,1556
2017-09-23T06:43:18.032Z,1612
2017-09-23T06:43:58.591Z,1648
2017-09-23T06:44:39.130Z,1688
2017-09-23T06:45:19.671Z,1688
2017-09-23T06:46:00.249Z,1664
2017-09-23T06:46:40.782Z,1628
2017-09-23T06:47:21.412Z,1544
2017-09-23T06:48:01.952Z,1420
2017-09-23T06:48:42.491Z,1312
2017-09-23T06:49:23.076Z,1196
2017-09-23T06:50:03.605Z,1068
2017-09-23T06:50:44.180Z,940
2017-09-23T06:51:24.697Z,876
2017-09-23T06:52:05.224Z,872
2017-09-23T06:52:45.767Z,884
2017-09-23T06:53:26.302Z,900
2017-09-23T06:54:06.844Z,912
2017-09-23T06:54:47.381Z,912
2017-09-23T06:55:27.901Z,892
2017-09-23T06:56:08.449Z,876
2017-09-23T06:56:48.985Z,840
2017-09-23T06:57:29.504Z,780
2017-09-23T06:58:10.081Z,740
2017-09-23T06:58:50.612Z,712
2017-09-23T06:59:31.181Z,704
2017-09-23T07:00:11.721Z,716
2017-09-23T07:00:52.258Z,748
2017-09-23T07:01:32.799Z,756
2017-09-23T07:02:13.344Z,748
2017-09-23T07:02:53.891Z,784
2017-09-23T07:03:34.429Z,844
2017-09-23T07:04:14.960Z,868
2017-09-23T07:04:55.677Z,896
2017-09-23T07:05:36.215Z,900
2017-09-23T07:06:16.756Z,944
2017-09-23T07:06:57.298Z,944
2017-09-23T07:07:37.952Z,936
2017-09-23T07:08:18.483Z,960
2017-09-23T07:08:59.018Z,1008
2017-09-23T07:09:39.545Z,1164
2017-09-23T07:10:20.077Z,1280
2017-09-23T07:11:01.663Z,1304
2017-09-23T07:11:42.161Z,1300
2017-09-23T07:12:22.707Z,1316
2017-09-23T07:13:03.272Z,1356
2017-09-23T07:13:43.931Z,1396
2017-09-23T07:14:25.107Z,1404
2017-09-23T07:15:05.642Z,1400
2017-09-23T07:15:46.158Z,1404
2017-09-23T07:16:26.699Z,1412
2017-09-23T07:17:07.218Z,1416
2017-09-23T07:17:47.745Z,1496
2017-09-23T07:18:28.282Z,1544
2017-09-23T07:19:08.812Z,1584
2017-09-23T07:19:49.350Z,1640
2017-09-23T07:20:29.866Z,1780
2017-09-23T07:21:10.412Z,1816
2017-09-23T07:21:50.978Z,1804
2017-09-23T07:22:31.506Z,1824
2017-09-23T07:23:12.037Z,1956
2017-09-23T07:23:52.553Z,2248
2017-09-23T07:24:33.081Z,2592
2017-09-23T07:25:13.619Z,2860
2017-09-23T07:25:54.167Z,2908
2017-09-23T07:26:34.707Z,2876
2017-09-23T07:27:15.242Z,2700
2017-09-23T07:27:55.780Z,2548
2017-09-23T07:28:36.323Z,2720
2017-09-23T07:29:16.856Z,2936
2017-09-23T07:29:57.388Z,3208
2017-09-23T07:30:37.924Z,3320
2017-09-23T07:31:18.455Z,3164
2017-09-23T07:31:58.984Z,2868
2017-09-23T07:32:39.527Z,2620
2017-09-23T07:33:20.069Z,2524
2017-09-23T07:34:00.609Z,2644
2017-09-23T07:34:41.142Z,2740
2017-09-23T07:35:21.678Z,2676
2017-09-23T07:36:02.206Z,2644
2017-09-23T07:36:42.748Z,2596
2017-09-23T07:37:23.284Z,2836
2017-09-23T07:38:03.810Z,3088
2017-09-23T07:38:44.370Z,3456
2017-09-23T07:39:24.905Z,3860
2017-09-23T07:40:05.441Z,4136
2017-09-23T07:40:45.977Z,4248
2017-09-23T07:41:26.520Z,4124
2017-09-23T07:42:07.051Z,3760
2017-09-23T07:42:47.954Z,3500
2017-09-23T07:43:28.488Z,3536
2017-09-23T07:44:09.030Z,3712
2017-09-23T07:44:49.564Z,3820
2017-09-23T07:45:30.097Z,3932
2017-09-23T07:46:10.668Z,4036
2017-09-23T07:46:51.153Z,4068
2017-09-23T07:47:31.682Z,4156
2017-09-23T07:48:12.220Z,4240
2017-09-23T07:48:52.762Z,4208
2017-09-23T07:49:33.299Z,4260
2017-09-23T07:50:13.830Z,4448
2017-09-23T07:50:54.358Z,4552
2017-09-23T07:51:34.885Z,4692
2017-09-23T07:52:15.413Z,4520
2017-09-23T07:52:55.957Z,4296
2017-09-23T07:53:36.521Z,4236
2017-09-23T07:54:17.055Z,4116
2017-09-23T07:54:57.583Z,4052
2017-09-23T07:55:38.114Z,3864
2017-09-23T07:56:18.652Z,3600
2017-09-23T07:56:59.194Z,3496
2017-09-23T07:57:39.732Z,3600
2017-09-23T07:58:20.268Z,3656
2017-09-23T07:59:00.806Z,3632
2017-09-23T07:59:41.346Z,3684
2017-09-23T08:00:21.890Z,3804
2017-09-23T08:01:02.426Z,3888
2017-09-23T08:01:42.961Z,3792
2017-09-23T08:02:23.497Z,3692
2017-09-23T08:03:04.037Z,3564
2017-09-23T08:03:44.582Z,3544
2017-09-23T08:04:25.123Z,3644
2017-09-23T08:05:05.669Z,3720
2017-09-23T08:05:46.195Z,3740
2017-09-23T08:06:26.745Z,3760
2017-09-23T08:07:07.282Z,3772
2017-09-23T08:07:47.823Z,3672
2017-09-23T08:08:28.360Z,3616
2017-09-23T08:09:08.901Z,3600
2017-09-23T08:09:49.447Z,3652
2017-09-23T08:10:29.984Z,4020
2017-09-23T08:11:10.518Z,4612
2017-09-23T08:11:51.059Z,4860
2017-09-23T08:12:31.597Z,5064
2017-09-23T08:13:12.137Z,5672
2017-09-23T08:13:52.677Z,6624
2017-09-23T08:14:33.383Z,7224
2017-09-23T08:15:13.834Z,7420
2017-09-23T08:15:54.387Z,7552
2017-09-23T08:16:34.926Z,7700
2017-09-23T08:17:15.478Z,7848
2017-09-23T08:17:56.832Z,8152
2017-09-23T08:18:37.457Z,8316
2017-09-23T08:19:18.006Z,8316
2017-09-23T08:19:58.533Z,8376
2017-09-23T08:20:39.069Z,8384
2017-09-23T08:21:19.582Z,8756
2017-09-23T08:22:00.120Z,9368
2017-09-23T08:22:40.666Z,10024
2017-09-23T08:23:21.208Z,10736
2017-09-23T08:24:01.748Z,11600
2017-09-23T08:24:42.295Z,11852
2017-09-23T08:25:22.842Z,11924
2017-09-23T08:26:03.367Z,11640
2017-09-23T08:26:43.906Z,11216
2017-09-23T08:27:24.449Z,10832
2017-09-23T08:28:04.988Z,10644
2017-09-23T08:28:45.521Z,10836
2017-09-23T08:29:26.053Z,10796
2017-09-23T08:30:06.598Z,11200
2017-09-23T08:30:47.145Z,11648
2017-09-23T08:31:27.677Z,11728
2017-09-23T08:32:08.225Z,11240
2017-09-23T08:32:48.770Z,10632
2017-09-23T08:33:29.312Z,9868
2017-09-23T08:34:09.877Z,9336
2017-09-23T08:34:50.431Z,8712
2017-09-23T08:35:30.966Z,8368
2017-09-23T08:36:11.500Z,8268
2017-09-23T08:36:52.049Z,8304
2017-09-23T08:37:32.563Z,8404
2017-09-23T08:38:13.105Z,8796
2017-09-23T08:38:53.656Z,9168
2017-09-23T08:39:34.197Z,9376
2017-09-23T08:40:14.741Z,9524
2017-09-23T08:40:55.283Z,9468
2017-09-23T08:41:35.881Z,9316
2017-09-23T08:42:16.421Z,8968
2017-09-23T08:42:56.960Z,8528
2017-09-23T08:43:37.495Z,7888
2017-09-23T08:44:18.032Z,7180
2017-09-23T08:44:58.564Z,6860
2017-09-23T08:45:39.107Z,6624
2017-09-23T08:46:19.632Z,6492
2017-09-23T08:47:00.161Z,6532
2017-09-23T08:47:40.706Z,6524
2017-09-23T08:48:21.250Z,6332
2017-09-23T08:49:01.794Z,6144
2017-09-23T08:49:42.329Z,6168
2017-09-23T08:50:22.860Z,6448
2017-09-23T08:51:03.402Z,6360
2017-09-23T08:51:43.938Z,6548
2017-09-23T08:52:24.474Z,6924
2017-09-23T08:53:05.017Z,7596
2017-09-23T08:53:45.557Z,9248
2017-09-23T08:54:26.098Z,11040
2017-09-23T08:55:06.633Z,12668
2017-09-23T08:55:47.165Z,18688
2017-09-23T08:56:27.694Z,22912
2017-09-23T08:57:08.236Z,18304
2017-09-23T08:57:48.769Z,17152
2017-09-23T08:58:29.326Z,24768
2017-09-23T08:59:09.867Z,24640
2017-09-23T08:59:50.396Z,29248
2017-09-23T09:00:30.905Z,29632
2017-09-23T09:01:11.447Z,29920
2017-09-23T09:01:51.988Z,27520
2017-09-23T09:02:32.527Z,30720
2017-09-23T09:03:13.049Z,31232
2017-09-23T09:03:53.607Z,30144
2017-09-23T09:04:34.136Z,29088
2017-09-23T09:05:14.662Z,30016
2017-09-23T09:05:55.199Z,31648
2017-09-23T09:06:35.743Z,32224
2017-09-23T09:07:16.324Z,34752
2017-09-23T09:07:56.789Z,34848
2017-09-23T09:08:37.309Z,34560
2017-09-23T09:09:17.836Z,34304
2017-09-23T09:09:58.407Z,34432
2017-09-23T09:10:38.900Z,34368
2017-09-23T09:11:19.426Z,34368
2017-09-23T09:11:59.956Z,34336
2017-09-23T09:12:40.491Z,34496
2017-09-23T09:13:21.034Z,35584
2017-09-23T09:14:01.574Z,36768
2017-09-23T09:14:42.109Z,36864
2017-09-23T09:15:22.640Z,36832
2017-09-23T09:16:03.203Z,36256
2017-09-23T09:16:43.733Z,36160
2017-09-23T09:17:24.267Z,36608
2017-09-23T09:18:04.805Z,37376
2017-09-23T09:18:45.354Z,33952
2017-09-23T09:19:25.895Z,34656
2017-09-23T09:20:06.458Z,37216
2017-09-23T09:20:46.992Z,37056
2017-09-23T09:21:27.530Z,36672
2017-09-23T09:22:08.081Z,37408
2017-09-23T09:22:48.623Z,37152
2017-09-23T09:23:29.157Z,37536
2017-09-23T09:24:09.690Z,36416
2017-09-23T09:24:50.229Z,35744
2017-09-23T09:25:30.769Z,36096
2017-09-23T09:26:11.315Z,34688
2017-09-23T09:26:51.866Z,34848
2017-09-23T09:27:32.407Z,15352
2017-09-23T09:28:12.946Z,11388
2017-09-23T09:28:53.500Z,9584
2017-09-23T09:29:34.019Z,20736
2017-09-23T09:30:14.558Z,8372
2017-09-23T09:30:55.096Z,7784
2017-09-23T09:31:35.634Z,7156
2017-09-23T09:32:16.172Z,6652
2017-09-23T09:32:56.713Z,6424